Time;durP1;ratioP1;P1;durP2;ratioP2;P2;SDS_P1;SDS_P2;PMS_P1;PMS_P2;Temp;Humidity;BMP_temperature;BMP_pressure;BME280_temperature;BME280_humidity;BME280_pressure;Samples;Min_cycle;Max_cycle;Signal;HPM_P1;HPM_P2
2023/09/27 00:01:59;;;;;;;14.48;11.52;;;;;;;15.76;76.26;101053.66;4181430;28;20068;-67
2023/09/27 00:04:03;;;;;;;16.88;13.10;;;;;;;15.76;76.48;101061.50;4181273;28;20036;-67
2023/09/27 00:06:06;;;;;;;16.08;10.00;;;;;;;15.70;76.13;101068.47;4163574;28;20570;-67
2023/09/27 00:08:11;;;;;;;18.90;10.45;;;;;;;15.59;76.77;101075.41;4178966;28;20408;-67
2023/09/27 00:10:14;;;;;;;13.63;9.27;;;;;;;15.47;77.11;101081.50;4181677;28;20135;-67
2023/09/27 00:12:18;;;;;;;14.85;9.40;;;;;;;15.47;76.80;101080.63;4181308;28;20036;-66
2023/09/27 00:14:21;;;;;;;12.75;9.50;;;;;;;15.50;76.66;101071.00;4180815;28;20075;-68
2023/09/27 00:16:24;;;;;;;10.88;8.55;;;;;;;15.54;77.26;101069.31;4180150;28;20059;-67
2023/09/27 00:18:27;;;;;;;17.70;7.88;;;;;;;15.57;76.84;101066.69;4177309;28;20091;-67
2023/09/27 00:20:30;;;;;;;16.60;9.45;;;;;;;15.57;76.25;101066.69;4181158;28;20044;-67
2023/09/27 00:22:33;;;;;;;15.77;9.95;;;;;;;15.56;76.45;101064.94;4181445;28;20123;-67
2023/09/27 00:24:38;;;;;;;15.13;9.02;;;;;;;15.53;76.19;101067.53;4181664;28;20547;-68
2023/09/27 00:26:41;;;;;;;11.55;8.00;;;;;;;15.50;76.31;101070.16;4180466;28;20503;-67
2023/09/27 00:28:44;;;;;;;10.32;8.00;;;;;;;15.48;76.63;101066.66;4177545;28;20069;-67
2023/09/27 00:30:50;;;;;;;12.07;8.27;;;;;;;15.45;76.51;101061.38;4180007;28;20107;-66
2023/09/27 00:32:53;;;;;;;11.73;7.63;;;;;;;15.43;75.81;101065.75;4163063;28;20068;-67
2023/09/27 00:34:55;;;;;;;10.10;8.13;;;;;;;15.42;76.34;101061.38;4179165;28;20476;-66
2023/09/27 00:36:58;;;;;;;10.25;7.15;;;;;;;15.41;76.40;101057.03;4163221;28;20535;-67
2023/09/27 00:39:01;;;;;;;9.13;6.35;;;;;;;15.40;76.06;101045.66;4163751;28;20041;-68
2023/09/27 00:41:06;;;;;;;11.98;8.07;;;;;;;15.39;76.41;101045.66;4163237;28;20033;-67
2023/09/27 00:43:09;;;;;;;11.52;7.50;;;;;;;15.39;75.88;101050.88;4181398;28;20493;-67
2023/09/27 00:45:11;;;;;;;12.50;7.90;;;;;;;15.36;75.69;101063.13;4163444;28;20527;-68
2023/09/27 00:47:15;;;;;;;11.32;7.32;;;;;;;15.36;76.32;101070.97;4180474;28;20040;-67
2023/09/27 00:49:18;;;;;;;11.50;7.60;;;;;;;15.33;75.73;101068.34;4178360;28;20040;-68
2023/09/27 00:51:21;;;;;;;10.10;6.68;;;;;;;15.34;76.34;101063.97;4180025;28;20784;-67
2023/09/27 00:53:28;;;;;;;8.43;6.93;;;;;;;15.36;76.22;101084.06;4179424;28;20079;-67
2023/09/27 00:55:31;;;;;;;8.90;7.32;;;;;;;15.35;75.96;101082.31;4179484;28;20045;-67
2023/09/27 00:57:36;;;;;;;9.10;6.77;;;;;;;15.35;75.71;101084.94;4179545;28;20029;-66
2023/09/27 00:59:39;;;;;;;11.75;7.00;;;;;;;15.35;75.98;101090.19;4176327;28;20106;-67
2023/09/27 01:01:43;;;;;;;11.25;7.95;;;;;;;15.37;76.23;101092.81;4162960;28;20517;-67
2023/09/27 01:03:47;;;;;;;11.57;8.13;;;;;;;15.38;75.66;101086.69;4162890;28;20037;-67
2023/09/27 01:05:50;;;;;;;14.07;8.23;;;;;;;15.38;76.27;101088.47;4180449;28;20120;-67
2023/09/27 01:07:53;;;;;;;12.52;7.32;;;;;;;15.36;76.17;101084.06;4179659;28;20059;-67
2023/09/27 01:09:56;;;;;;;15.95;9.15;;;;;;;15.34;76.81;101067.47;4179580;28;20045;-67
2023/09/27 01:12:01;;;;;;;12.52;7.57;;;;;;;15.32;77.00;101070.97;4162907;28;20416;-67
2023/09/27 01:14:05;;;;;;;10.18;7.75;;;;;;;15.30;76.22;101063.09;4179253;28;20037;-66
2023/09/27 01:16:08;;;;;;;13.50;8.80;;;;;;;15.30;76.85;101060.47;4180913;28;20128;-67
2023/09/27 01:18:10;;;;;;;13.15;8.63;;;;;;;15.29;76.80;101050.88;4162727;28;20037;-66
2023/09/27 01:20:13;;;;;;;10.32;8.82;;;;;;;15.28;77.49;101053.47;4179285;28;20033;-66
2023/09/27 01:22:16;;;;;;;12.25;9.57;;;;;;;15.28;77.27;101056.97;4180016;28;20508;-66
2023/09/27 01:24:20;;;;;;;14.68;9.45;;;;;;;15.27;77.13;101065.69;4147137;28;20056;-66
2023/09/27 01:26:24;;;;;;;11.57;8.95;;;;;;;15.24;77.83;101049.94;4162831;28;20041;-66
2023/09/27 01:29:17;;;;;;;12.75;9.48;;;;;;;15.24;77.51;101054.31;4163292;28;20038;-66
2023/09/27 01:31:20;;;;;;;13.07;7.78;;;;;;;15.18;77.73;101056.03;4161922;28;20068;-67
2023/09/27 01:33:26;;;;;;;13.07;8.30;;;;;;;15.21;77.90;101057.78;4162231;28;20042;-68
2023/09/27 01:35:30;;;;;;;14.30;8.85;;;;;;;15.23;78.16;101042.97;4178728;28;20188;-68
2023/09/27 01:37:33;;;;;;;13.45;9.40;;;;;;;15.24;77.78;101049.94;4161808;28;20034;-67
2023/09/27 01:39:37;;;;;;;13.18;9.70;;;;;;;15.22;77.14;101046.47;4162618;28;20055;-68
2023/09/27 01:41:40;;;;;;;15.50;10.43;;;;;;;15.17;78.09;101045.56;4179185;28;20033;-67
2023/09/27 01:43:43;;;;;;;14.93;9.43;;;;;;;15.14;77.65;101032.44;4162357;28;20539;-68
2023/09/27 01:45:46;;;;;;;13.77;10.05;;;;;;;15.13;78.00;101041.19;4178901;28;20573;-67
2023/09/27 01:47:49;;;;;;;14.27;9.90;;;;;;;15.13;77.86;101036.81;4161992;28;20029;-66
2023/09/27 01:49:52;;;;;;;14.82;9.52;;;;;;;15.11;78.05;101025.47;4145620;28;20506;-67
2023/09/27 01:51:55;;;;;;;11.25;8.32;;;;;;;15.09;78.55;101018.47;4145980;28;20038;-68
2023/09/27 01:53:58;;;;;;;13.40;9.82;;;;;;;15.08;78.31;101019.31;4180288;28;20415;-66
2023/09/27 01:56:04;;;;;;;15.05;9.50;;;;;;;15.07;78.59;101009.72;4180254;28;20040;-67
2023/09/27 01:58:06;;;;;;;17.73;10.40;;;;;;;15.05;78.62;101001.00;4161687;28;20497;-67
2023/09/27 02:00:11;;;;;;;15.05;10.32;;;;;;;15.07;78.26;101001.84;4162332;28;20080;-67
2023/09/27 02:02:16;;;;;;;15.70;10.45;;;;;;;15.05;78.30;101001.84;4175504;28;20500;-67
2023/09/27 02:04:19;;;;;;;13.15;10.52;;;;;;;15.02;78.27;101001.84;4162154;28;20416;-68
2023/09/27 02:06:24;;;;;;;16.13;11.32;;;;;;;14.99;78.25;101002.69;4179434;28;20048;-67
2023/09/27 02:08:27;;;;;;;15.73;11.02;;;;;;;15.01;78.40;100998.34;4161977;28;20033;-66
2023/09/27 02:10:30;;;;;;;13.10;10.70;;;;;;;15.03;78.07;101002.75;4175930;28;20068;-66
2023/09/27 02:12:36;;;;;;;15.65;10.50;;;;;;;15.00;78.22;101012.31;4179612;28;20484;-67
2023/09/27 02:14:39;;;;;;;18.98;11.90;;;;;;;14.99;78.19;101013.16;4179636;28;20047;-67
2023/09/27 02:16:43;;;;;;;17.60;11.23;;;;;;;15.00;77.96;101022.78;4161570;28;20042;-67
2023/09/27 02:18:46;;;;;;;10.90;8.48;;;;;;;14.95;78.32;101028.84;4179684;28;20122;-66
2023/09/27 02:20:50;;;;;;;10.88;9.02;;;;;;;14.94;77.99;101038.47;4162767;28;20489;-67
2023/09/27 02:22:54;;;;;;;12.10;9.75;;;;;;;14.94;78.19;101038.47;4162965;28;20476;-66
2023/09/27 02:24:57;;;;;;;15.73;11.38;;;;;;;14.92;77.71;101039.31;4162966;28;20124;-67
2023/09/27 02:27:00;;;;;;;13.82;11.88;;;;;;;14.92;78.01;101048.06;4162631;28;20457;-67
2023/09/27 02:29:08;;;;;;;13.48;10.93;;;;;;;14.92;77.89;101053.31;4162159;28;20176;-67
2023/09/27 02:31:12;;;;;;;15.18;12.23;;;;;;;14.91;77.66;101048.94;4162255;28;20382;-67
2023/09/27 02:33:16;;;;;;;16.02;11.65;;;;;;;14.90;77.77;101044.56;4162232;28;20419;-67
2023/09/27 02:35:20;;;;;;;16.38;12.32;;;;;;;14.89;78.18;101036.69;4162263;28;20065;-67
2023/09/27 02:37:22;;;;;;;;;;;;;;;14.77;78.67;101037.50;4158597;28;20038;-67
2023/09/27 02:39:25;;;;;;;14.98;11.80;;;;;;;14.79;79.13;101038.38;4162090;28;20007;-67
2023/09/27 02:41:29;;;;;;;18.23;13.30;;;;;;;14.84;77.95;101044.53;4161835;28;20041;-67
2023/09/27 02:43:32;;;;;;;13.73;11.43;;;;;;;14.85;78.52;101046.28;4165193;28;20120;-67
2023/09/27 02:45:36;;;;;;;15.15;12.60;;;;;;;14.84;78.13;101049.75;4177744;28;20400;-66
2023/09/27 02:47:43;;;;;;;15.48;12.25;;;;;;;14.76;78.31;101054.06;4181520;28;20029;-67
2023/09/27 02:49:46;;;;;;;15.93;11.77;;;;;;;14.56;78.95;101062.63;4165473;28;20040;-67
2023/09/27 02:51:52;;;;;;;15.40;11.20;;;;;;;14.53;78.27;101070.44;4165532;28;20048;-67
2023/09/27 02:53:55;;;;;;;12.07;9.55;;;;;;;14.54;78.89;101074.81;4161968;28;20087;-67
2023/09/27 02:55:58;;;;;;;16.63;11.45;;;;;;;14.59;79.38;101074.84;4165141;28;20457;-67
2023/09/27 02:58:01;;;;;;;22.95;13.60;;;;;;;14.57;79.59;101069.63;4182610;28;20460;-67
2023/09/27 03:00:06;;;;;;;16.63;13.38;;;;;;;14.43;79.93;101076.47;4148892;28;20076;-67
2023/09/27 03:02:11;;;;;;;21.60;14.40;;;;;;;14.45;79.57;101069.50;4179505;28;20061;-67
2023/09/27 03:04:15;;;;;;;24.48;15.10;;;;;;;14.52;79.55;101068.69;4165297;28;20071;-66
2023/09/27 03:06:19;;;;;;;21.73;12.95;;;;;;;14.49;79.54;101073.91;4164831;28;20046;-66
2023/09/27 03:08:22;;;;;;;15.05;11.57;;;;;;;14.46;79.49;101066.03;4164820;28;20073;-67
2023/09/27 03:10:24;;;;;;;19.40;13.32;;;;;;;14.38;79.38;101080.78;4165315;28;20090;-67
2023/09/27 03:12:28;;;;;;;15.52;11.95;;;;;;;14.26;79.02;101081.56;4165039;28;20069;-66
2023/09/27 03:14:31;;;;;;;19.90;13.00;;;;;;;14.25;79.47;101082.41;4164985;28;20037;-67
2023/09/27 03:16:34;;;;;;;14.10;11.50;;;;;;;14.20;79.05;101084.13;4164898;28;20116;-67
2023/09/27 03:18:39;;;;;;;18.73;10.98;;;;;;;14.17;79.02;101090.19;4161527;28;20113;-68
2023/09/27 03:20:42;;;;;;;12.70;10.63;;;;;;;14.18;79.31;101078.88;4164709;28;20602;-67
2023/09/27 03:22:46;;;;;;;16.98;12.70;;;;;;;14.24;78.82;101084.16;4164912;28;20034;-67
2023/09/27 03:24:51;;;;;;;20.58;15.50;;;;;;;14.30;78.25;101083.34;4164765;28;20048;-66
2023/09/27 03:26:54;;;;;;;16.95;11.57;;;;;;;14.35;78.42;101083.38;4180395;28;20438;-67
2023/09/27 03:28:57;;;;;;;16.10;11.70;;;;;;;14.40;78.56;101079.06;4180971;28;20035;-66
2023/09/27 03:31:00;;;;;;;14.55;11.40;;;;;;;14.42;78.41;101085.19;4148491;28;20045;-66
2023/09/27 03:33:05;;;;;;;17.98;13.00;;;;;;;14.38;78.74;101084.25;4164890;28;20037;-67
2023/09/27 03:35:10;;;;;;;16.55;12.70;;;;;;;14.39;77.96;101087.78;4164677;28;20132;-66
2023/09/27 03:37:14;;;;;;;;;;;;;;;14.27;77.73;101092.03;4182692;28;20047;-67
2023/09/27 03:39:22;;;;;;;11.98;9.68;;;;;;;14.26;77.74;101100.72;4160395;28;20492;-67
2023/09/27 03:41:25;;;;;;;14.20;10.18;;;;;;;14.26;78.16;101099.84;4164545;28;20046;-66
2023/09/27 03:43:28;;;;;;;14.07;12.02;;;;;;;14.29;77.18;101105.13;4164425;28;20095;-66
2023/09/27 03:45:35;;;;;;;15.73;11.77;;;;;;;14.31;77.22;101111.25;4182478;28;20037;-66
2023/09/27 03:47:39;;;;;;;14.05;11.60;;;;;;;14.29;77.30;101116.47;4164476;28;20204;-68
2023/09/27 03:49:42;;;;;;;18.88;12.80;;;;;;;14.26;76.64;101115.56;4164624;28;20083;-67
2023/09/27 03:51:47;;;;;;;12.20;10.25;;;;;;;14.26;77.12;101112.94;4164010;28;20120;-68
2023/09/27 03:53:50;;;;;;;14.82;10.70;;;;;;;14.24;76.62;101114.66;4159682;28;20034;-67
2023/09/27 03:55:54;;;;;;;14.13;11.45;;;;;;;14.22;77.63;101114.66;4163648;28;20037;-67
2023/09/27 03:57:57;;;;;;;13.65;11.10;;;;;;;14.24;77.34;101114.66;4163691;28;20037;-67
2023/09/27 04:00:00;;;;;;;17.13;10.65;;;;;;;14.24;77.13;101107.69;4180469;28;20049;-67
2023/09/27 04:02:03;;;;;;;14.57;10.27;;;;;;;14.24;76.44;101115.53;4163958;28;20040;-68
2023/09/27 04:04:07;;;;;;;13.95;10.77;;;;;;;14.21;76.86;101118.13;4163887;28;20487;-67
2023/09/27 04:06:10;;;;;;;13.27;9.73;;;;;;;14.19;76.63;101113.72;4163971;28;20045;-67
2023/09/27 04:08:14;;;;;;;12.00;9.68;;;;;;;14.17;76.66;101118.09;4164363;28;20049;-68
2023/09/27 04:10:19;;;;;;;13.32;11.07;;;;;;;14.14;76.92;101119.78;4164088;28;20107;-68
2023/09/27 04:12:22;;;;;;;;;;;;;;;14.03;77.42;101124.06;4179663;28;20037;-67
2023/09/27 04:14:25;;;;;;;14.00;8.95;;;;;;;14.02;76.70;101116.16;4182073;28;19990;-67
2023/09/27 04:16:30;;;;;;;15.85;11.70;;;;;;;14.03;76.81;101112.69;4181798;28;20447;-68
2023/09/27 04:18:33;;;;;;;13.85;11.77;;;;;;;14.00;76.57;101107.44;4175520;28;20443;-68
2023/09/27 04:20:36;;;;;;;16.48;12.98;;;;;;;13.95;76.39;101107.41;4181739;28;20043;-67
2023/09/27 04:22:38;;;;;;;14.10;12.45;;;;;;;13.93;76.56;101112.59;4181390;28;20037;-68
2023/09/27 04:24:43;;;;;;;16.15;12.57;;;;;;;13.92;76.15;101104.75;4181210;28;20052;-68
2023/09/27 04:26:46;;;;;;;15.65;12.45;;;;;;;13.85;76.68;101093.34;4180923;28;20128;-67
2023/09/27 04:28:48;;;;;;;16.42;11.38;;;;;;;13.82;77.16;101082.84;4180496;28;20061;-68
2023/09/27 04:30:51;;;;;;;18.75;14.60;;;;;;;13.82;77.43;101082.00;4180927;28;20052;-68
2023/09/27 04:32:54;;;;;;;17.30;14.02;;;;;;;13.82;77.97;101080.25;4180708;28;20457;-68
2023/09/27 04:34:58;;;;;;;17.40;13.63;;;;;;;13.87;77.85;101081.19;4180302;28;20039;-68
2023/09/27 04:37:02;;;;;;;15.30;12.65;;;;;;;13.86;78.10;101084.66;4181109;28;20067;-68
2023/09/27 04:39:10;;;;;;;15.57;12.82;;;;;;;13.85;78.05;101085.50;4177755;28;20032;-68
2023/09/27 04:41:16;;;;;;;17.58;13.30;;;;;;;13.87;77.69;101090.75;4177499;28;20124;-67
2023/09/27 04:43:20;;;;;;;19.80;13.80;;;;;;;13.87;77.86;101095.97;4181698;28;20679;-68
2023/09/27 04:45:23;;;;;;;18.63;12.30;;;;;;;13.88;77.42;101102.97;4181247;28;20044;-69
2023/09/27 04:47:25;;;;;;;21.88;13.27;;;;;;;13.86;77.27;101102.94;4163200;28;20045;-68
2023/09/27 04:49:32;;;;;;;19.85;14.27;;;;;;;13.86;77.10;101099.47;4181494;28;20598;-68
2023/09/27 04:51:35;;;;;;;16.30;13.05;;;;;;;13.89;77.46;101096.88;4181884;28;20033;-68
2023/09/27 04:53:38;;;;;;;21.35;13.85;;;;;;;13.91;78.05;101085.56;4181538;28;20069;-68
2023/09/27 04:55:41;;;;;;;20.02;15.85;;;;;;;13.92;77.62;101089.94;4181324;28;20029;-67
2023/09/27 04:57:45;;;;;;;17.90;15.10;;;;;;;13.95;78.07;101095.19;4181235;28;20065;-68
2023/09/27 04:59:48;;;;;;;23.00;16.75;;;;;;;13.98;77.53;101098.72;4181359;28;20029;-69
2023/09/27 05:01:51;;;;;;;19.20;16.10;;;;;;;13.99;76.50;101108.28;4181511;28;20128;-67
2023/09/27 05:03:54;;;;;;;21.30;15.10;;;;;;;13.90;77.13;101106.47;4180985;28;20488;-67
2023/09/27 05:05:57;;;;;;;14.95;12.13;;;;;;;13.83;77.62;101105.53;4180088;28;20128;-67
2023/09/27 05:08:00;;;;;;;15.77;12.52;;;;;;;13.81;77.81;101106.38;4180966;28;20044;-67
2023/09/27 05:10:04;;;;;;;17.98;13.38;;;;;;;13.80;77.52;101113.34;4181234;28;20392;-68
2023/09/27 05:12:07;;;;;;;15.55;13.48;;;;;;;13.81;77.16;101101.13;4177550;28;20123;-67
2023/09/27 05:14:11;;;;;;;18.58;13.50;;;;;;;13.83;77.25;101107.25;4181043;28;20036;-68
2023/09/27 05:16:14;;;;;;;19.05;14.55;;;;;;;13.83;77.57;101105.53;4181121;28;20041;-66
2023/09/27 05:18:17;;;;;;;13.93;11.70;;;;;;;13.85;78.05;101116.00;4180554;28;20048;-68
2023/09/27 05:20:20;;;;;;;17.77;14.95;;;;;;;13.84;77.66;101109.88;4180834;28;20365;-69
2023/09/27 05:22:24;;;;;;;22.95;16.42;;;;;;;13.84;77.78;101115.09;4176393;28;20190;-68
2023/09/27 05:24:27;;;;;;;18.85;13.90;;;;;;;13.87;78.33;101123.00;4180537;28;20052;-68
2023/09/27 05:26:29;;;;;;;16.88;13.18;;;;;;;13.83;78.69;101121.22;4180961;28;20635;-67
2023/09/27 05:28:33;;;;;;;19.73;13.52;;;;;;;13.82;78.43;101124.69;4180694;28;20041;-67
2023/09/27 05:30:37;;;;;;;17.30;13.25;;;;;;;13.82;78.68;101122.06;4181036;28;20120;-68
2023/09/27 05:32:42;;;;;;;19.48;14.20;;;;;;;13.83;78.94;101131.66;4180861;28;20041;-69
2023/09/27 05:34:45;;;;;;;21.27;14.43;;;;;;;13.82;78.99;101134.25;4180644;28;20041;-68
2023/09/27 05:36:48;;;;;;;16.85;13.70;;;;;;;13.84;78.74;101132.53;4180561;28;20129;-68
2023/09/27 05:38:51;;;;;;;22.13;16.27;;;;;;;13.85;78.70;101129.94;4180700;28;20128;-67
2023/09/27 05:40:54;;;;;;;18.87;14.27;;;;;;;13.86;77.95;101136.06;4180275;28;20506;-67
2023/09/27 05:42:57;;;;;;;18.02;13.32;;;;;;;13.83;77.98;101142.13;4176699;28;20064;-68
2023/09/27 05:45:04;;;;;;;20.80;14.18;;;;;;;13.81;78.47;101150.78;4180589;28;20174;-68
2023/09/27 05:47:08;;;;;;;17.55;13.57;;;;;;;13.82;78.16;101145.59;4180222;28;20116;-68
2023/09/27 05:49:14;;;;;;;24.67;15.15;;;;;;;13.74;78.59;101147.22;4180709;28;20404;-68
2023/09/27 05:51:17;;;;;;;18.08;12.90;;;;;;;13.75;78.22;101131.56;4180798;28;20257;-68
2023/09/27 05:53:20;;;;;;;20.15;13.90;;;;;;;13.80;79.00;101121.19;4180274;28;20422;-68
2023/09/27 05:55:23;;;;;;;18.25;14.07;;;;;;;13.85;78.64;101126.44;4176767;28;20392;-67
2023/09/27 05:57:25;;;;;;;16.63;13.65;;;;;;;13.89;78.28;101125.63;4180237;28;20068;-68
2023/09/27 05:59:28;;;;;;;17.40;12.85;;;;;;;13.89;78.03;101134.34;4178995;28;20534;-67
2023/09/27 06:01:31;;;;;;;17.33;13.15;;;;;;;13.90;78.67;101130.88;4180309;28;20458;-68
2023/09/27 06:03:37;;;;;;;24.48;15.07;;;;;;;13.92;78.39;101137.00;4177069;28;20032;-67
2023/09/27 06:05:39;;;;;;;18.55;14.13;;;;;;;13.93;78.47;101125.69;4180332;28;20041;-68
2023/09/27 06:07:43;;;;;;;14.48;11.68;;;;;;;13.95;77.64;101128.31;4180116;28;20043;-68
2023/09/27 06:09:46;;;;;;;18.75;13.43;;;;;;;13.94;78.09;101129.16;4180293;28;20480;-67
2023/09/27 06:11:50;;;;;;;22.15;15.60;;;;;;;13.94;78.29;101129.16;4180533;28;20037;-68
2023/09/27 06:13:52;;;;;;;17.73;13.75;;;;;;;13.94;78.10;101137.91;4176113;28;20040;-68
2023/09/27 06:15:55;;;;;;;19.20;13.75;;;;;;;13.97;77.83;101137.03;4180436;28;20083;-68
2023/09/27 06:17:58;;;;;;;17.02;13.73;;;;;;;14.02;78.13;101142.31;4179638;28;20455;-68
2023/09/27 06:20:11;;;;;;;23.50;15.77;;;;;;;14.06;77.91;101141.47;4180249;28;20039;-67
2023/09/27 06:22:15;;;;;;;25.15;17.08;;;;;;;14.05;78.20;101148.47;4177177;28;20037;-67
2023/09/27 06:24:18;;;;;;;24.70;17.02;;;;;;;14.05;78.18;101142.38;4158430;28;20574;-68
2023/09/27 06:26:21;;;;;;;23.13;16.98;;;;;;;14.03;78.17;101150.19;4179978;28;20128;-68
2023/09/27 06:28:24;;;;;;;18.88;15.63;;;;;;;14.05;78.40;101150.22;4180153;28;20579;-67
2023/09/27 06:30:27;;;;;;;20.20;14.07;;;;;;;14.08;78.83;101151.09;4162472;28;20033;-68
2023/09/27 06:32:29;;;;;;;24.13;18.77;;;;;;;14.10;79.04;101152.00;4180210;28;20481;-68
2023/09/27 06:34:32;;;;;;;27.15;17.88;;;;;;;14.15;78.88;101162.53;4180045;28;20037;-68
2023/09/27 06:36:37;;;;;;;22.25;16.48;;;;;;;14.20;78.54;101152.97;4180170;28;20033;-68
2023/09/27 06:38:41;;;;;;;21.83;17.92;;;;;;;14.21;78.10;101154.72;4176705;28;20051;-68
2023/09/27 06:40:48;;;;;;;25.85;20.20;;;;;;;14.23;78.48;101158.22;4179857;28;20132;-69
2023/09/27 06:42:51;;;;;;;24.00;19.08;;;;;;;14.26;79.19;101163.50;4179800;28;20044;-68
2023/09/27 06:44:54;;;;;;;29.88;22.42;;;;;;;14.29;78.81;101160.94;4162397;28;20045;-68
2023/09/27 06:46:57;;;;;;;21.80;18.10;;;;;;;14.33;78.52;101161.81;4179983;28;20073;-67
2023/09/27 06:49:00;;;;;;;24.45;19.80;;;;;;;14.35;78.60;101162.72;4162439;28;20045;-68
2023/09/27 06:51:03;;;;;;;22.00;17.67;;;;;;;14.38;79.02;101154.88;4180070;28;20041;-67
2023/09/27 06:53:07;;;;;;;26.40;19.25;;;;;;;14.43;78.76;101154.97;4180164;28;20033;-68
2023/09/27 06:55:26;;;;;;;22.20;18.85;;;;;;;14.42;79.13;101155.81;4179555;28;20377;-68
2023/09/27 06:57:29;;;;;;;19.75;16.80;;;;;;;14.41;79.77;101157.56;4179355;28;20492;-67
2023/09/27 06:59:32;;;;;;;21.90;17.60;;;;;;;14.42;78.81;101161.03;4176247;28;20036;-68
2023/09/27 07:01:35;;;;;;;23.55;17.92;;;;;;;14.45;78.64;101158.44;4179967;28;20507;-68
2023/09/27 07:03:38;;;;;;;18.65;15.48;;;;;;;14.47;78.49;101156.72;4179566;28;20052;-68
2023/09/27 07:05:41;;;;;;;23.23;16.95;;;;;;;14.48;79.30;101150.63;4180186;28;20523;-68
2023/09/27 07:07:44;;;;;;;20.55;15.30;;;;;;;14.51;79.11;101147.16;4179802;28;20131;-68
2023/09/27 07:09:48;;;;;;;34.67;21.65;;;;;;;14.56;79.09;101143.75;4177833;28;20033;-67
2023/09/27 07:11:51;;;;;;;32.05;21.75;;;;;;;14.59;78.90;101141.13;4179716;28;20072;-68
2023/09/27 07:13:55;;;;;;;32.97;23.50;;;;;;;14.64;78.79;101144.69;4179897;28;20087;-67
2023/09/27 07:15:59;;;;;;;39.75;23.25;;;;;;;14.67;79.00;101149.09;4179898;28;20515;-68
2023/09/27 07:18:03;;;;;;;26.38;20.17;;;;;;;14.72;78.68;101144.78;4179695;28;20079;-67
2023/09/27 07:20:23;;;;;;;29.77;22.52;;;;;;;14.75;79.31;101142.19;4179778;28;20037;-68
2023/09/27 07:22:26;;;;;;;28.88;20.40;;;;;;;14.77;78.48;101147.44;4179666;28;20061;-68
2023/09/27 07:24:30;;;;;;;27.50;18.95;;;;;;;14.82;78.90;101141.38;4179978;28;20033;-67
2023/09/27 07:26:35;;;;;;;22.70;16.92;;;;;;;14.88;79.17;101142.25;4179861;28;20037;-69
2023/09/27 07:28:38;;;;;;;18.50;14.95;;;;;;;14.89;79.08;101144.88;4163542;28;20305;-68
2023/09/27 07:30:41;;;;;;;16.83;13.38;;;;;;;14.94;79.29;101148.44;4166363;28;20049;-68
2023/09/27 07:32:45;;;;;;;20.63;14.38;;;;;;;14.97;78.64;101140.59;4165873;28;20046;-69
2023/09/27 07:34:51;;;;;;;18.17;12.73;;;;;;;14.98;78.66;101150.22;4166779;28;20048;-68
2023/09/27 07:36:54;;;;;;;;;;;;;;;15.00;78.98;101153.69;4166679;28;20033;-68
2023/09/27 07:38:59;;;;;;;17.70;14.10;;;;;;;15.26;78.00;101141.63;4175509;28;19921;-68
2023/09/27 07:41:05;;;;;;;14.48;12.38;;;;;;;15.22;77.73;101153.84;4181985;28;20484;-67
2023/09/27 07:43:09;;;;;;;15.27;12.88;;;;;;;15.02;79.05;101158.94;4182222;28;21160;-68
2023/09/27 07:45:21;;;;;;;14.88;12.45;;;;;;;14.92;78.71;101155.41;4178587;28;20124;-68
2023/09/27 07:47:24;;;;;;;14.93;12.93;;;;;;;14.82;79.52;101158.78;4182116;28;20400;-68
2023/09/27 07:49:27;;;;;;;15.25;12.82;;;;;;;14.81;80.07;101143.97;4182275;28;20124;-68
2023/09/27 07:51:30;;;;;;;14.07;12.55;;;;;;;15.03;79.57;101146.75;4182049;28;20037;-67
2023/09/27 07:53:32;;;;;;;15.40;12.52;;;;;;;15.20;78.85;101152.97;4182216;28;20065;-67
2023/09/27 07:55:43;;;;;;;15.65;12.88;;;;;;;15.18;79.46;101147.69;4182296;28;20033;-68
2023/09/27 07:57:46;;;;;;;11.75;9.95;;;;;;;15.22;79.44;101147.75;4182003;28;20443;-68
2023/09/27 07:59:50;;;;;;;12.52;11.23;;;;;;;15.34;79.40;101145.19;4181950;28;20471;-68
2023/09/27 08:01:54;;;;;;;12.85;10.80;;;;;;;15.36;79.09;101146.97;4181911;28;20068;-68
2023/09/27 08:04:05;;;;;;;12.45;11.15;;;;;;;15.30;79.04;101143.41;4182116;28;20090;-67
2023/09/27 08:06:13;;;;;;;11.00;9.70;;;;;;;15.25;79.39;101134.66;4181768;28;20039;-68
2023/09/27 08:08:16;;;;;;;12.07;10.82;;;;;;;15.24;78.79;101136.38;4181748;28;20037;-68
2023/09/27 08:10:20;;;;;;;13.38;11.00;;;;;;;15.33;78.55;101136.47;4181953;28;20495;-68
2023/09/27 08:12:27;;;;;;;15.05;10.68;;;;;;;15.39;79.02;101134.72;4181750;28;20036;-68
2023/09/27 08:14:30;;;;;;;14.30;12.80;;;;;;;15.50;78.45;101140.91;4181829;28;20060;-68
2023/09/27 08:16:35;;;;;;;14.40;12.38;;;;;;;15.57;78.19;101132.22;4181838;28;20170;-68
2023/09/27 08:18:40;;;;;;;13.38;11.40;;;;;;;15.63;78.19;101134.84;4177628;28;20093;-68
2023/09/27 08:20:43;;;;;;;14.65;12.10;;;;;;;15.78;77.92;101125.28;4181723;28;20041;-68
2023/09/27 08:22:48;;;;;;;14.90;13.38;;;;;;;15.84;77.10;101134.09;4181646;28;20037;-68
2023/09/27 08:24:52;;;;;;;12.45;10.75;;;;;;;15.82;77.59;101127.09;4164056;28;20037;-68
2023/09/27 08:26:55;;;;;;;13.45;11.18;;;;;;;15.83;77.82;101121.84;4159608;28;20044;-68
2023/09/27 08:28:57;;;;;;;13.75;11.10;;;;;;;15.90;77.87;101117.47;4163916;28;20033;-69
2023/09/27 08:31:00;;;;;;;12.45;10.77;;;;;;;16.01;77.54;101118.41;4147450;28;20120;-67
2023/09/27 08:33:04;;;;;;;15.07;11.40;;;;;;;15.98;77.81;101115.75;4181696;28;20033;-68
2023/09/27 08:35:08;;;;;;;15.68;11.00;;;;;;;16.05;77.84;101114.06;4180018;28;20029;-68
2023/09/27 08:37:11;;;;;;;11.23;9.52;;;;;;;16.16;77.53;101116.69;4179388;28;20044;-68
2023/09/27 08:39:14;;;;;;;13.65;11.43;;;;;;;16.33;77.13;101116.72;4180427;28;20051;-67
2023/09/27 08:41:18;;;;;;;14.90;9.38;;;;;;;16.39;76.64;101114.94;4163224;28;20393;-67
2023/09/27 08:43:22;;;;;;;13.43;9.50;;;;;;;16.51;76.23;101126.34;4181516;28;20037;-67
2023/09/27 08:45:27;;;;;;;14.10;9.95;;;;;;;16.52;75.90;101118.47;4177661;28;20033;-68
2023/09/27 08:47:31;;;;;;;13.13;10.00;;;;;;;16.59;75.47;101119.34;4180946;28;20067;-67
2023/09/27 08:49:35;;;;;;;10.52;8.45;;;;;;;16.65;75.85;101128.97;4181035;28;20033;-68
2023/09/27 08:51:42;;;;;;;11.20;8.35;;;;;;;16.68;75.90;101118.47;4163554;28;20034;-68
2023/09/27 08:53:45;;;;;;;12.98;8.70;;;;;;;16.80;75.70;101125.47;4163589;28;20037;-69
2023/09/27 08:55:48;;;;;;;13.88;8.00;;;;;;;16.88;75.44;101126.34;4181383;28;20456;-68
2023/09/27 08:57:58;;;;;;;10.02;8.52;;;;;;;17.05;74.63;101123.72;4177593;28;20090;-67
2023/09/27 08:59:59;;;;;;;9.88;7.82;;;;;;;17.09;74.87;101118.44;4163383;28;20111;-67
2023/09/27 09:02:04;;;;;;;12.52;10.00;;;;;;;17.28;73.92;101131.53;4163152;28;20037;-66
2023/09/27 09:04:08;;;;;;;;;;;;;;;17.31;73.50;101128.91;4181459;28;20025;-67
2023/09/27 09:06:24;;;;;;;11.38;8.15;;;;;;;17.31;73.65;101126.28;4157014;28;19928;-67
2023/09/27 09:08:27;;;;;;;11.18;8.20;;;;;;;17.43;73.52;101118.38;4180600;28;20045;-68
2023/09/27 09:10:45;;;;;;;9.52;6.88;;;;;;;17.55;73.63;101117.44;4180857;28;20045;-68
2023/09/27 09:12:49;;;;;;;12.95;8.82;;;;;;;17.64;73.05;101111.28;4180983;28;20067;-68
2023/09/27 09:14:54;;;;;;;11.52;6.55;;;;;;;17.73;73.40;101113.84;4163118;28;20128;-68
2023/09/27 09:16:57;;;;;;;10.13;7.00;;;;;;;17.85;72.89;101110.28;4180526;28;20068;-67
2023/09/27 09:19:19;;;;;;;8.63;7.20;;;;;;;17.91;72.64;101109.41;4163446;28;20045;-68
2023/09/27 09:21:43;;;;;;;8.70;6.65;;;;;;;18.02;72.25;101098.78;4180622;28;20110;-68
2023/09/27 09:23:49;;;;;;;11.75;6.93;;;;;;;18.16;72.40;101094.31;4180691;28;20095;-68
2023/09/27 09:25:53;;;;;;;15.68;8.32;;;;;;;18.24;71.71;101094.28;4180951;28;20220;-67
2023/09/27 09:28:03;;;;;;;8.73;6.90;;;;;;;18.37;70.62;101087.16;4162730;28;20037;-67
2023/09/27 09:30:11;;;;;;;11.07;8.13;;;;;;;18.36;70.54;101083.66;4178812;28;20417;-67